Time;durP1;ratioP1;P1;durP2;ratioP2;P2;SDS_P1;SDS_P2;PMS_P1;PMS_P2;Temp;Humidity;BMP_temperature;BMP_pressure;BME280_temperature;BME280_humidity;BME280_pressure;Samples;Min_cycle;Max_cycle;Signal;HPM_P1;HPM_P2
2023/08/17 00:00:18;;;;;;;4.00;3.70;;;19.90;99.90;;;;;;4971369;28;20110;-77
2023/08/17 00:02:44;;;;;;;3.50;2.90;;;19.80;99.90;;;;;;4971443;28;20023;-77
2023/08/17 00:05:10;;;;;;;3.60;3.13;;;19.80;99.90;;;;;;4954045;28;20027;-78
2023/08/17 00:07:36;;;;;;;8.55;3.83;;;19.70;99.90;;;;;;4954100;28;20122;-77
2023/08/17 00:10:02;;;;;;;3.30;3.00;;;19.70;99.90;;;;;;4971055;28;20034;-77
2023/08/17 00:12:28;;;;;;;7.43;3.80;;;19.50;99.90;;;;;;4953467;28;20030;-76
2023/08/17 00:14:54;;;;;;;6.68;4.30;;;19.40;99.90;;;;;;4953681;28;20035;-78
2023/08/17 00:17:20;;;;;;;6.68;3.70;;;19.40;99.90;;;;;;4970994;28;20034;-77
2023/08/17 00:19:46;;;;;;;5.00;4.07;;;19.40;99.90;;;;;;4953693;28;20027;-79
2023/08/17 00:22:15;;;;;;;3.88;3.42;;;19.30;99.90;;;;;;4954302;28;20034;-77
2023/08/17 00:24:44;;;;;;;5.93;4.00;;;19.30;99.90;;;;;;4953936;28;20035;-78
2023/08/17 00:27:10;;;;;;;3.47;3.15;;;19.30;99.90;;;;;;4953484;28;20424;-78
2023/08/17 00:29:36;;;;;;;4.70;3.85;;;19.30;99.90;;;;;;4969772;28;20495;-76
2023/08/17 00:32:02;;;;;;;6.00;3.20;;;19.30;99.90;;;;;;4952789;28;20093;-78
2023/08/17 00:34:28;;;;;;;7.00;3.75;;;19.30;99.90;;;;;;4970706;28;20015;-77
2023/08/17 00:36:53;;;;;;;9.95;4.28;;;19.30;99.90;;;;;;4970518;28;20037;-79
2023/08/17 00:39:19;;;;;;;4.80;3.67;;;19.30;99.90;;;;;;4953261;28;20431;-76
2023/08/17 00:41:45;;;;;;;4.55;3.67;;;19.30;99.90;;;;;;4969325;28;20113;-78
2023/08/17 00:44:11;;;;;;;9.27;3.90;;;19.20;99.90;;;;;;4970761;28;20062;-77
2023/08/17 00:46:38;;;;;;;4.50;3.47;;;19.10;99.90;;;;;;4970201;28;20412;-77
2023/08/17 00:49:04;;;;;;;5.22;3.58;;;19.00;99.90;;;;;;4970409;28;20058;-77
2023/08/17 00:51:31;;;;;;;4.93;4.03;;;19.00;99.90;;;;;;4968996;28;20023;-76
2023/08/17 00:53:59;;;;;;;7.13;4.32;;;18.90;99.90;;;;;;4953055;28;20035;-77
2023/08/17 00:56:26;;;;;;;4.32;3.85;;;18.90;99.90;;;;;;4969010;28;20022;-78
2023/08/17 00:58:52;;;;;;;4.70;3.80;;;18.90;99.90;;;;;;4968545;28;20050;-78
2023/08/17 01:01:18;;;;;;;5.45;3.63;;;18.80;99.90;;;;;;4969911;28;20122;-77
2023/08/17 01:03:43;;;;;;;5.60;3.92;;;18.90;99.90;;;;;;4969137;28;20118;-78
2023/08/17 01:06:10;;;;;;;5.80;3.15;;;18.90;99.90;;;;;;4970164;28;20118;-77
2023/08/17 01:08:36;;;;;;;4.70;2.97;;;18.90;99.90;;;;;;4970488;28;20109;-77
2023/08/17 01:11:13;;;;;;;6.68;3.30;;;18.90;99.90;;;;;;4968837;28;20065;-77
2023/08/17 01:13:49;;;;;;;4.18;3.60;;;18.80;99.90;;;;;;4952866;28;20045;-77
2023/08/17 01:16:21;;;;;;;6.10;3.85;;;18.70;99.90;;;;;;4969152;28;20019;-78
2023/08/17 01:18:48;;;;;;;5.95;3.80;;;18.70;99.90;;;;;;4970656;28;20023;-79
2023/08/17 01:21:18;;;;;;;4.72;4.20;;;18.70;99.90;;;;;;4970510;28;20507;-76
2023/08/17 01:23:45;;;;;;;8.32;4.72;;;18.80;99.90;;;;;;4952791;28;20134;-77
2023/08/17 01:26:15;;;;;;;6.15;3.67;;;18.70;99.90;;;;;;4970305;28;20026;-78
2023/08/17 01:28:45;;;;;;;4.90;3.85;;;18.80;99.90;;;;;;4952615;28;20471;-77
2023/08/17 01:31:54;;;;;;;6.85;4.35;;;18.80;99.90;;;;;;4969659;28;20031;-78
2023/08/17 01:34:23;;;;;;;8.17;4.57;;;18.70;99.90;;;;;;4875584;29;20044;-77
2023/08/17 01:36:55;;;;;;;4.60;3.17;;;18.80;99.90;;;;;;4959889;28;20337;-77
2023/08/17 01:39:27;;;;;;;4.28;2.92;;;18.80;99.90;;;;;;4952869;28;20042;-77
2023/08/17 01:41:56;;;;;;;3.63;3.30;;;18.70;99.90;;;;;;4970038;28;20031;-77
2023/08/17 01:44:22;;;;;;;;;;;18.80;99.90;;;;;;4971092;28;20069;-78
2023/08/17 01:46:48;;;;;;;4.97;3.20;;;18.70;99.90;;;;;;4969865;28;19910;-76
2023/08/17 01:49:14;;;;;;;4.40;4.00;;;18.70;99.90;;;;;;4968455;28;20472;-77
2023/08/17 01:51:40;;;;;;;6.93;4.07;;;18.60;99.90;;;;;;4970209;28;20105;-79
2023/08/17 01:54:06;;;;;;;5.10;3.53;;;18.60;99.90;;;;;;4970716;28;20046;-82
2023/08/17 01:56:31;;;;;;;9.35;3.95;;;18.60;99.90;;;;;;4952676;28;20022;-78
2023/08/17 01:58:57;;;;;;;4.55;4.13;;;18.50;99.90;;;;;;4952525;28;20085;-78
2023/08/17 02:01:23;;;;;;;6.30;3.92;;;18.50;99.90;;;;;;4952315;28;20027;-78
2023/08/17 02:03:48;;;;;;;4.30;3.47;;;18.50;99.90;;;;;;4970099;28;20070;-78
2023/08/17 02:06:15;;;;;;;5.55;4.05;;;18.50;99.90;;;;;;4952793;28;20055;-78
2023/08/17 02:08:41;;;;;;;5.93;4.35;;;18.60;99.90;;;;;;4968489;28;20448;-78
2023/08/17 02:11:07;;;;;;;8.63;4.55;;;18.50;99.90;;;;;;4953875;28;20030;-78
2023/08/17 02:13:32;;;;;;;4.47;3.83;;;18.40;99.90;;;;;;4956156;28;20097;-78
2023/08/17 02:15:58;;;;;;;7.30;4.22;;;18.40;99.90;;;;;;4973221;28;20466;-78
2023/08/17 02:18:23;;;;;;;5.20;3.70;;;18.50;99.90;;;;;;4973643;28;20027;-77
2023/08/17 02:20:49;;;;;;;6.43;3.63;;;18.50;99.90;;;;;;4973198;28;20027;-78
2023/08/17 02:23:15;;;;;;;6.50;4.25;;;18.40;99.90;;;;;;4973797;28;20380;-77
2023/08/17 02:25:40;;;;;;;7.22;4.63;;;18.30;99.90;;;;;;4972955;28;20542;-78
2023/08/17 02:28:06;;;;;;;9.00;5.10;;;18.30;99.90;;;;;;4973026;28;20058;-78
2023/08/17 02:30:32;;;;;;;5.55;4.82;;;18.40;99.90;;;;;;4973075;28;20077;-77
2023/08/17 02:32:58;;;;;;;7.40;5.22;;;18.30;99.90;;;;;;4972566;28;20033;-77
2023/08/17 02:35:24;;;;;;;34.95;6.18;;;18.40;99.90;;;;;;4955669;28;20476;-77
2023/08/17 02:37:49;;;;;;;7.88;5.78;;;18.50;99.90;;;;;;4955562;28;20023;-78
2023/08/17 02:40:15;;;;;;;7.28;4.43;;;18.50;99.90;;;;;;4973181;28;20023;-77
2023/08/17 02:42:41;;;;;;;8.05;5.20;;;18.60;99.90;;;;;;4972898;28;20030;-77
2023/08/17 02:45:08;;;;;;;7.32;6.00;;;18.70;99.90;;;;;;4972925;28;20419;-77
2023/08/17 02:47:33;;;;;;;6.80;4.38;;;18.70;99.90;;;;;;4972613;28;20050;-77
2023/08/17 02:49:59;;;;;;;6.00;4.95;;;18.70;99.90;;;;;;4972773;28;20484;-76
2023/08/17 02:52:24;;;;;;;8.65;5.25;;;18.70;99.90;;;;;;4972581;28;20030;-77
2023/08/17 02:54:50;;;;;;;6.35;4.75;;;18.60;99.90;;;;;;4971174;28;20547;-77
2023/08/17 02:57:16;;;;;;;8.70;5.20;;;18.70;99.90;;;;;;4972544;28;20026;-78
2023/08/17 02:59:41;;;;;;;9.98;5.22;;;18.70;99.90;;;;;;4971055;28;20137;-78
2023/08/17 03:02:07;;;;;;;9.95;5.22;;;18.70;99.90;;;;;;4972667;28;20568;-76
2023/08/17 03:04:33;;;;;;;11.82;5.47;;;18.80;99.90;;;;;;4972866;28;20360;-78
2023/08/17 03:06:58;;;;;;;8.48;5.45;;;18.80;99.90;;;;;;4984084;28;20041;-77
2023/08/17 03:09:24;;;;;;;7.57;5.40;;;18.90;99.90;;;;;;4991925;28;20735;-77
2023/08/17 03:11:50;;;;;;;8.45;5.07;;;18.80;99.90;;;;;;4974437;28;20038;-77
2023/08/17 03:14:15;;;;;;;6.00;5.38;;;18.80;99.90;;;;;;4974501;28;20061;-77
2023/08/17 03:16:41;;;;;;;7.63;5.65;;;18.80;99.90;;;;;;4991556;28;20166;-77
2023/08/17 03:19:10;;;;;;;7.47;5.25;;;18.80;99.90;;;;;;4991727;28;20034;-77
2023/08/17 03:21:36;;;;;;;7.65;6.28;;;18.70;99.90;;;;;;4991266;28;20475;-77
2023/08/17 03:24:02;;;;;;;7.80;5.75;;;18.70;99.90;;;;;;4990678;28;20085;-76
2023/08/17 03:26:27;;;;;;;10.10;6.32;;;18.70;99.90;;;;;;4973502;28;20033;-76
2023/08/17 03:28:53;;;;;;;6.72;4.90;;;18.70;99.90;;;;;;4991375;28;20026;-76
2023/08/17 03:31:21;;;;;;;7.28;5.50;;;18.80;99.90;;;;;;4991420;28;20069;-76
2023/08/17 03:33:47;;;;;;;11.70;6.00;;;18.70;99.90;;;;;;4991727;28;20129;-77
2023/08/17 03:36:12;;;;;;;8.02;5.38;;;18.70;99.90;;;;;;4991400;28;20109;-77
2023/08/17 03:38:39;;;;;;;11.57;6.72;;;18.80;99.90;;;;;;4991114;28;20064;-77
2023/08/17 03:41:05;;;;;;;12.15;6.75;;;18.80;99.90;;;;;;4991365;28;20015;-77
2023/08/17 03:43:31;;;;;;;9.95;6.75;;;18.80;99.90;;;;;;4991296;28;20024;-77
2023/08/17 03:45:58;;;;;;;11.02;7.75;;;18.70;99.90;;;;;;4990866;28;20415;-77
2023/08/17 03:48:24;;;;;;;14.75;7.95;;;18.70;99.90;;;;;;4973630;28;20077;-77
2023/08/17 03:50:54;;;;;;;10.27;6.22;;;18.60;99.90;;;;;;4991073;28;20434;-77
2023/08/17 03:53:20;;;;;;;13.27;9.13;;;18.70;99.90;;;;;;4973248;28;20129;-77
2023/08/17 03:55:50;;;;;;;18.88;10.25;;;18.70;99.90;;;;;;4973361;28;20438;-77
2023/08/17 03:58:17;;;;;;;17.30;8.38;;;18.70;99.90;;;;;;4990972;28;20081;-77
2023/08/17 04:00:51;;;;;;;13.15;7.53;;;18.70;99.90;;;;;;4990284;28;20403;-77
2023/08/17 04:03:17;;;;;;;14.02;8.18;;;18.70;99.90;;;;;;4991304;28;20463;-77
2023/08/17 04:05:43;;;;;;;12.43;6.57;;;18.80;99.90;;;;;;4991284;28;20427;-77
2023/08/17 04:08:09;;;;;;;12.70;7.82;;;19.00;99.90;;;;;;4990884;28;20069;-77
2023/08/17 04:10:34;;;;;;;15.48;9.10;;;18.90;99.90;;;;;;4990694;28;20033;-77
2023/08/17 04:13:00;;;;;;;13.82;8.43;;;18.80;99.90;;;;;;4990532;28;20390;-76
2023/08/17 04:15:25;;;;;;;14.60;8.95;;;18.80;99.90;;;;;;4973216;28;20076;-77
2023/08/17 04:17:51;;;;;;;13.65;8.38;;;18.80;99.90;;;;;;4990174;28;20022;-77
2023/08/17 04:20:18;;;;;;;18.27;7.32;;;18.90;99.90;;;;;;4972967;28;20518;-77
2023/08/17 04:22:44;;;;;;;9.75;7.32;;;18.70;99.90;;;;;;4990389;28;20088;-77
2023/08/17 04:25:09;;;;;;;17.20;9.70;;;18.70;99.90;;;;;;4990386;28;20105;-76
2023/08/17 04:27:35;;;;;;;24.10;10.75;;;18.80;99.90;;;;;;4990579;28;20038;-77
2023/08/17 04:30:01;;;;;;;20.52;10.55;;;18.70;99.90;;;;;;4990546;28;20463;-77
2023/08/17 04:32:27;;;;;;;16.20;9.27;;;18.70;99.90;;;;;;4990107;28;20073;-77
2023/08/17 04:34:52;;;;;;;20.52;9.38;;;18.70;99.90;;;;;;4990038;28;20022;-78
2023/08/17 04:37:18;;;;;;;18.42;9.80;;;18.80;99.90;;;;;;4990116;28;20043;-77
2023/08/17 04:39:44;;;;;;;20.48;10.65;;;18.80;99.90;;;;;;4990501;28;20026;-77
2023/08/17 04:42:10;;;;;;;19.95;9.52;;;18.90;99.90;;;;;;4990168;28;20485;-77
2023/08/17 04:44:35;;;;;;;18.45;9.85;;;18.90;99.90;;;;;;4990046;28;20197;-77
2023/08/17 04:47:01;;;;;;;22.38;10.85;;;19.00;99.90;;;;;;4990121;28;20105;-77
2023/08/17 04:49:27;;;;;;;23.45;12.45;;;19.00;99.90;;;;;;4988567;28;20027;-77
2023/08/17 04:51:53;;;;;;;23.05;11.32;;;19.00;99.90;;;;;;4988648;28;20386;-76
2023/08/17 04:54:19;;;;;;;26.60;13.35;;;19.00;99.90;;;;;;4997171;28;20030;-76
2023/08/17 04:56:44;;;;;;;35.03;12.43;;;19.00;99.90;;;;;;4999720;28;20184;-77
2023/08/17 04:59:10;;;;;;;25.58;13.02;;;18.90;99.90;;;;;;4994285;28;20495;-77
2023/08/17 05:01:37;;;;;;;25.55;13.23;;;19.00;99.90;;;;;;4988013;28;20101;-76
2023/08/17 05:04:03;;;;;;;25.35;13.10;;;19.00;99.90;;;;;;4989833;28;20438;-76
2023/08/17 05:06:29;;;;;;;24.98;13.27;;;19.00;99.90;;;;;;4990071;28;20096;-76
2023/08/17 05:08:55;;;;;;;23.85;10.77;;;19.10;99.90;;;;;;4991398;28;20025;-77
2023/08/17 05:11:20;;;;;;;22.42;11.77;;;19.10;99.90;;;;;;4989729;28;20027;-76
2023/08/17 05:13:46;;;;;;;23.30;10.93;;;19.10;99.90;;;;;;4991497;28;20038;-76
2023/08/17 05:16:12;;;;;;;23.45;12.35;;;19.10;99.90;;;;;;4987878;28;20080;-77
2023/08/17 05:18:37;;;;;;;25.30;10.77;;;19.10;99.90;;;;;;4991257;28;20048;-77
2023/08/17 05:21:03;;;;;;;22.30;11.68;;;19.20;99.90;;;;;;4989631;28;20030;-77
2023/08/17 05:23:28;;;;;;;23.58;13.60;;;19.20;99.90;;;;;;4989557;28;20030;-77
2023/08/17 05:25:54;;;;;;;25.65;12.68;;;19.20;99.90;;;;;;4989756;28;20046;-77
2023/08/17 05:28:20;;;;;;;30.95;12.35;;;19.20;99.90;;;;;;4988177;28;20034;-77
2023/08/17 05:30:46;;;;;;;24.13;11.05;;;19.20;99.90;;;;;;4989196;28;20073;-76
2023/08/17 05:33:12;;;;;;;23.08;12.00;;;19.20;99.90;;;;;;4989487;28;20038;-77
2023/08/17 05:35:37;;;;;;;29.63;12.60;;;19.10;99.90;;;;;;4989531;28;20019;-77
2023/08/17 05:38:03;;;;;;;21.77;11.57;;;19.30;99.90;;;;;;4989633;28;20037;-77
2023/08/17 05:40:30;;;;;;;18.15;11.00;;;19.30;99.90;;;;;;4989541;28;20026;-77
2023/08/17 05:42:56;;;;;;;23.92;11.80;;;19.40;99.90;;;;;;4988343;28;20081;-76
2023/08/17 05:45:22;;;;;;;32.10;14.57;;;19.40;99.90;;;;;;4989788;28;20318;-76
2023/08/17 05:47:47;;;;;;;22.17;12.05;;;19.30;99.90;;;;;;4993043;28;20027;-77
2023/08/17 05:50:13;;;;;;;21.98;11.73;;;19.30;99.90;;;;;;4992031;28;20057;-77
2023/08/17 05:52:40;;;;;;;21.67;11.13;;;19.40;99.90;;;;;;4993498;28;20034;-77
2023/08/17 05:55:06;;;;;;;20.90;8.95;;;19.50;99.90;;;;;;4993144;28;20026;-77
2023/08/17 05:57:32;;;;;;;21.75;12.32;;;19.50;99.90;;;;;;4975791;28;20096;-77
2023/08/17 05:59:58;;;;;;;29.92;11.63;;;19.50;99.90;;;;;;4992739;28;20050;-77
2023/08/17 06:02:23;;;;;;;22.50;10.65;;;19.50;99.90;;;;;;4991190;28;20038;-77
2023/08/17 06:04:49;;;;;;;28.55;14.05;;;19.40;99.90;;;;;;4991680;28;20027;-77
2023/08/17 06:07:15;;;;;;;20.92;10.73;;;19.50;99.90;;;;;;4991636;28;20057;-76
2023/08/17 06:09:40;;;;;;;35.22;13.35;;;19.40;99.90;;;;;;4993132;28;20033;-76
2023/08/17 06:12:06;;;;;;;22.52;11.73;;;19.50;99.90;;;;;;4991614;28;20034;-76
2023/08/17 06:14:34;;;;;;;22.75;11.32;;;19.50;99.90;;;;;;4992447;28;20030;-73
2023/08/17 06:16:59;;;;;;;24.90;11.15;;;19.60;99.90;;;;;;4992446;28;20517;-71
2023/08/17 06:19:25;;;;;;;22.02;13.00;;;19.70;99.90;;;;;;4992823;28;20077;-74
2023/08/17 06:21:51;;;;;;;27.02;12.15;;;19.60;99.90;;;;;;4991277;28;20475;-75
2023/08/17 06:24:18;;;;;;;23.30;11.57;;;19.60;99.90;;;;;;4991255;28;20031;-71
2023/08/17 06:26:44;;;;;;;21.25;11.32;;;19.60;99.90;;;;;;4993270;28;20473;-73
2023/08/17 06:29:10;;;;;;;23.35;12.55;;;19.50;99.90;;;;;;4994334;28;20460;-72
2023/08/17 06:31:35;;;;;;;21.58;11.68;;;19.50;99.90;;;;;;4990144;28;20037;-72
2023/08/17 06:34:01;;;;;;;24.80;10.23;;;19.40;99.90;;;;;;4989556;28;20069;-72
2023/08/17 06:36:31;;;;;;;21.10;11.55;;;19.50;99.90;;;;;;4991039;28;20054;-72
2023/08/17 06:38:56;;;;;;;22.15;11.13;;;19.70;99.90;;;;;;4990657;28;20018;-73
2023/08/17 06:41:22;;;;;;;24.02;11.10;;;19.90;99.90;;;;;;4989043;28;20037;-73
2023/08/17 06:43:48;;;;;;;21.15;11.30;;;20.00;99.90;;;;;;4990566;28;20034;-72
2023/08/17 06:46:13;;;;;;;24.73;10.68;;;20.00;99.90;;;;;;4990284;28;20018;-72
2023/08/17 06:48:39;;;;;;;22.58;9.93;;;20.20;99.90;;;;;;4990294;28;20037;-76
2023/08/17 06:51:05;;;;;;;24.45;12.73;;;20.20;99.90;;;;;;4989594;28;20110;-72
2023/08/17 06:53:31;;;;;;;19.98;10.07;;;20.30;99.90;;;;;;4989029;28;20101;-73
2023/08/17 06:55:56;;;;;;;16.92;9.75;;;20.50;99.90;;;;;;4988702;28;20522;-72
2023/08/17 06:58:22;;;;;;;19.73;8.93;;;20.70;99.90;;;;;;4987342;28;20113;-72
2023/08/17 07:00:48;;;;;;;17.35;9.07;;;20.80;99.90;;;;;;4971996;28;20069;-73
2023/08/17 07:03:13;;;;;;;16.42;8.82;;;21.00;99.90;;;;;;4990379;28;20103;-72
2023/08/17 07:05:39;;;;;;;13.32;7.38;;;21.10;99.90;;;;;;4972384;28;20691;-73
2023/08/17 07:08:06;;;;;;;15.38;7.47;;;21.20;99.90;;;;;;4991348;28;20394;-72
2023/08/17 07:10:32;;;;;;;15.77;8.63;;;21.20;99.90;;;;;;4974633;28;20026;-72
2023/08/17 07:12:58;;;;;;;15.70;8.02;;;21.10;99.90;;;;;;4991730;28;20544;-72
2023/08/17 07:15:23;;;;;;;13.15;6.78;;;21.20;99.90;;;;;;4991870;28;20069;-72
2023/08/17 07:17:49;;;;;;;15.32;7.55;;;21.20;99.90;;;;;;4991376;28;20053;-72
2023/08/17 07:20:15;;;;;;;18.42;8.02;;;21.40;99.90;;;;;;4991439;28;20483;-72
2023/08/17 07:22:40;;;;;;;12.75;7.18;;;21.40;99.90;;;;;;4991366;28;20030;-72
2023/08/17 07:25:08;;;;;;;11.45;6.82;;;21.60;99.90;;;;;;4991870;28;20076;-72
2023/08/17 07:27:34;;;;;;;12.90;6.53;;;21.80;99.90;;;;;;4991789;28;20022;-72
2023/08/17 07:29:59;;;;;;;15.23;6.45;;;21.80;99.90;;;;;;4991951;28;20026;-72
2023/08/17 07:32:26;;;;;;;12.20;7.18;;;22.00;99.90;;;;;;4991232;28;20081;-72
2023/08/17 07:34:51;;;;;;;10.65;7.30;;;22.30;99.90;;;;;;4991534;28;20359;-72
2023/08/17 07:37:17;;;;;;;11.82;6.78;;;22.50;99.90;;;;;;4991251;28;20026;-72
2023/08/17 07:39:42;;;;;;;8.90;5.93;;;22.60;99.90;;;;;;4991107;28;20081;-72
2023/08/17 07:42:08;;;;;;;13.90;6.95;;;22.90;99.90;;;;;;4991070;28;20030;-73
2023/08/17 07:44:34;;;;;;;13.70;7.55;;;23.10;99.90;;;;;;4991507;28;20030;-72
2023/08/17 07:47:00;;;;;;;13.98;8.38;;;23.20;99.90;;;;;;4990846;28;20023;-72
2023/08/17 07:49:27;;;;;;;10.57;7.38;;;23.30;99.90;;;;;;4973858;28;20068;-73
2023/08/17 07:51:53;;;;;;;11.90;8.32;;;23.10;99.90;;;;;;4990893;28;20022;-72
2023/08/17 07:54:18;;;;;;;14.48;7.45;;;23.50;99.90;;;;;;4991135;28;20467;-72
2023/08/17 07:56:44;;;;;;;16.30;8.52;;;23.70;99.90;;;;;;4973349;28;20391;-73
2023/08/17 07:59:10;;;;;;;14.63;9.43;;;23.70;99.90;;;;;;4990696;28;20104;-72
2023/08/17 08:01:35;;;;;;;17.20;8.57;;;23.50;99.90;;;;;;4990513;28;20089;-74
2023/08/17 08:04:02;;;;;;;12.82;8.25;;;23.20;99.90;;;;;;4990967;28;20014;-72
2023/08/17 08:06:27;;;;;;;17.27;8.23;;;23.20;99.90;;;;;;4990796;28;20052;-71
2023/08/17 08:08:53;;;;;;;19.90;9.40;;;23.20;99.90;;;;;;4990458;28;20085;-72
2023/08/17 08:11:21;;;;;;;12.93;7.78;;;23.20;99.90;;;;;;4990660;28;20410;-72
2023/08/17 08:13:46;;;;;;;16.75;8.02;;;23.00;99.90;;;;;;4990683;28;20045;-75
2023/08/17 08:16:12;;;;;;;16.70;9.32;;;23.30;99.90;;;;;;4990213;28;20026;-72
2023/08/17 08:18:37;;;;;;;15.63;9.57;;;23.20;99.90;;;;;;4990452;28;20404;-72
2023/08/17 08:21:03;;;;;;;16.73;9.38;;;22.90;99.90;;;;;;4990448;28;20035;-72
2023/08/17 08:23:29;;;;;;;15.65;8.32;;;22.60;99.90;;;;;;4990448;28;20391;-72
2023/08/17 08:25:55;;;;;;;13.50;7.35;;;23.00;99.90;;;;;;4990979;28;20146;-71
2023/08/17 08:28:20;;;;;;;16.25;8.40;;;23.00;99.90;;;;;;4990584;28;20037;-73
2023/08/17 08:30:46;;;;;;;12.63;7.68;;;22.90;99.90;;;;;;4990105;28;20076;-72
2023/08/17 08:33:11;;;;;;;17.50;9.05;;;22.60;99.90;;;;;;4990306;28;20042;-72
2023/08/17 08:35:38;;;;;;;15.80;9.18;;;22.50;99.90;;;;;;4990208;28;20475;-72
2023/08/17 08:38:04;;;;;;;14.90;8.98;;;22.40;99.90;;;;;;4990017;28;20104;-72
2023/08/17 08:40:30;;;;;;;14.82;7.97;;;22.20;99.90;;;;;;4990131;28;20026;-72
2023/08/17 08:42:59;;;;;;;14.63;8.48;;;22.50;99.90;;;;;;4990120;28;20026;-72
2023/08/17 08:45:28;;;;;;;12.18;7.80;;;22.70;99.90;;;;;;4989863;28;20345;-73
2023/08/17 08:47:54;;;;;;;13.55;7.78;;;23.00;99.90;;;;;;4972879;28;20037;-72
2023/08/17 08:50:22;;;;;;;11.48;6.97;;;23.30;99.90;;;;;;4990115;28;20110;-72
2023/08/17 08:53:02;;;;;;;13.65;7.88;;;23.70;99.90;;;;;;4989937;28;20030;-72
2023/08/17 08:55:31;;;;;;;11.52;6.85;;;24.00;99.90;;;;;;4990097;28;20471;-72
2023/08/17 08:57:58;;;;;;;;;;;24.10;99.90;;;;;;4990398;28;20053;-72
2023/08/17 09:00:24;;;;;;;13.90;8.35;;;24.10;99.90;;;;;;4989345;28;20357;-72
2023/08/17 09:02:52;;;;;;;10.23;6.53;;;24.10;99.90;;;;;;4989834;28;20118;-72
2023/08/17 09:05:18;;;;;;;10.27;6.97;;;23.70;99.90;;;;;;4972210;28;20368;-72
2023/08/17 09:07:44;;;;;;;13.48;7.43;;;23.90;99.90;;;;;;4989945;28;20026;-72
2023/08/17 09:10:10;;;;;;;11.57;8.50;;;24.50;99.90;;;;;;4992603;28;20061;-73
2023/08/17 09:12:36;;;;;;;16.08;7.20;;;25.60;99.90;;;;;;4991478;28;20042;-72
2023/08/17 09:15:02;;;;;;;13.00;8.75;;;26.30;99.90;;;;;;4987421;28;20113;-72
2023/08/17 09:17:28;;;;;;;14.55;7.43;;;26.50;99.90;;;;;;4987434;28;20019;-72
2023/08/17 09:19:54;;;;;;;11.25;6.78;;;26.50;99.90;;;;;;4987219;28;20045;-72
2023/08/17 09:22:24;;;;;;;11.55;7.00;;;26.40;99.90;;;;;;4987896;28;20158;-72
2023/08/17 09:24:49;;;;;;;12.32;7.32;;;26.50;99.90;;;;;;4987570;28;20117;-72
2023/08/17 09:27:15;;;;;;;12.52;7.43;;;26.40;99.90;;;;;;4987985;28;20094;-72
2023/08/17 09:29:45;;;;;;;9.77;6.40;;;26.10;99.90;;;;;;4988863;28;20168;-78
2023/08/17 09:32:11;;;;;;;9.00;5.63;;;26.20;99.90;;;;;;4970480;28;20083;-77
2023/08/17 09:34:37;;;;;;;8.98;5.70;;;26.40;99.90;;;;;;4987700;28;20057;-77
2023/08/17 09:37:04;;;;;;;9.13;5.63;;;26.50;99.90;;;;;;4970158;28;20030;-78
2023/08/17 09:39:30;;;;;;;5.35;4.60;;;26.70;99.90;;;;;;4988093;28;20463;-78
2023/08/17 09:41:56;;;;;;;7.18;5.13;;;27.20;99.90;;;;;;4972025;28;20062;-77
2023/08/17 09:44:22;;;;;;;10.50;6.30;;;27.90;99.90;;;;;;4971803;28;20062;-77
2023/08/17 09:46:48;;;;;;;8.23;5.43;;;28.20;99.90;;;;;;4971877;28;20026;-77
2023/08/17 09:49:13;;;;;;;5.75;3.97;;;27.80;99.90;;;;;;4989468;28;20387;-78
2023/08/17 09:51:43;;;;;;;4.85;4.28;;;27.90;99.90;;;;;;4971833;28;20351;-77
2023/08/17 09:54:22;;;;;;;5.45;3.80;;;28.20;99.90;;;;;;4971885;28;20038;-78
2023/08/17 09:56:50;;;;;;;4.93;4.45;;;28.20;99.90;;;;;;4989587;28;20041;-78
2023/08/17 09:59:16;;;;;;;5.00;3.55;;;28.40;99.90;;;;;;4989164;28;20389;-77
2023/08/17 10:01:43;;;;;;;5.00;3.13;;;28.50;99.90;;;;;;4989105;28;20046;-78
2023/08/17 10:04:10;;;;;;;6.45;4.07;;;28.70;99.90;;;;;;4988843;28;20026;-79
2023/08/17 10:06:40;;;;;;;3.42;2.95;;;28.90;99.90;;;;;;4989327;28;20071;-78
2023/08/17 10:09:09;;;;;;;6.40;3.78;;;29.00;99.90;;;;;;4989788;28;20023;-78
2023/08/17 10:11:39;;;;;;;4.25;3.85;;;29.20;99.90;;;;;;4985859;28;20401;-77
2023/08/17 10:14:24;;;;;;;4.88;3.55;;;29.70;99.90;;;;;;4987636;28;20467;-77
2023/08/17 10:17:01;;;;;;;6.25;2.75;;;30.30;99.90;;;;;;4971508;28;20041;-76
2023/08/17 10:19:55;;;;;;;3.72;2.17;;;30.30;94.70;;;;;;4988483;28;20053;-78
2023/08/17 10:22:42;;;;;;;4.45;1.80;;;30.30;90.90;;;;;;4988540;28;20582;-77
2023/08/17 10:25:11;;;;;;;4.90;2.55;;;30.00;83.60;;;;;;4971317;28;20037;-78
2023/08/17 10:27:37;;;;;;;4.65;1.83;;;29.90;82.40;;;;;;4989207;28;20034;-77
2023/08/17 10:30:04;;;;;;;5.20;2.53;;;29.50;82.00;;;;;;4987557;28;20165;-78
2023/08/17 10:32:30;;;;;;;3.92;2.15;;;29.40;80.70;;;;;;4989112;28;20391;-79
2023/08/17 10:34:57;;;;;;;1.75;1.58;;;29.30;84.50;;;;;;4990902;28;20505;-77
2023/08/17 10:37:24;;;;;;;4.18;2.45;;;28.90;80.60;;;;;;4973068;28;20541;-78
2023/08/17 10:39:51;;;;;;;3.22;2.35;;;29.00;83.60;;;;;;4973442;28;20022;-77
2023/08/17 10:42:31;;;;;;;2.75;2.08;;;29.00;81.70;;;;;;4989860;28;20045;-77
2023/08/17 10:44:57;;;;;;;5.57;2.13;;;29.10;81.10;;;;;;4991099;28;20033;-77
2023/08/17 10:47:28;;;;;;;2.97;1.77;;;28.80;81.80;;;;;;4992173;28;20086;-77
2023/08/17 10:50:19;;;;;;;3.55;1.95;;;29.40;79.50;;;;;;4992557;28;20025;-77
2023/08/17 10:52:47;;;;;;;7.80;2.15;;;29.70;76.20;;;;;;4974670;28;20034;-77
2023/08/17 10:55:13;;;;;;;3.13;2.07;;;30.60;74.80;;;;;;4992090;28;20014;-75
2023/08/17 10:57:43;;;;;;;3.83;1.60;;;31.40;72.80;;;;;;4992056;28;20037;-76
2023/08/17 11:00:31;;;;;;;10.57;2.65;;;31.90;70.80;;;;;;4990699;28;20492;-75
2023/08/17 11:03:01;;;;;;;;;;;31.90;68.40;;;;;;4991183;28;20395;-76
2023/08/17 11:05:58;;;;;;;5.88;2.60;;;31.80;67.30;;;;;;4991999;28;19972;-75
2023/08/17 11:08:33;;;;;;;4.38;2.28;;;31.90;68.90;;;;;;4991099;28;20607;-76
2023/08/17 11:11:03;;;;;;;5.93;2.30;;;31.80;71.00;;;;;;4974645;28;20062;-78
2023/08/17 11:13:31;;;;;;;4.65;2.25;;;31.80;69.40;;;;;;4990548;28;20137;-78
2023/08/17 11:15:58;;;;;;;5.03;2.03;;;32.30;70.20;;;;;;4990404;28;20026;-78
2023/08/17 11:18:24;;;;;;;6.15;2.70;;;31.50;70.30;;;;;;4990130;28;20030;-77
2023/08/17 11:20:50;;;;;;;3.25;2.38;;;30.50;72.30;;;;;;4990194;28;20034;-79
2023/08/17 11:23:16;;;;;;;3.05;2.03;;;30.30;74.20;;;;;;4991453;28;20021;-78
2023/08/17 11:25:42;;;;;;;4.68;1.83;;;30.30;72.60;;;;;;4991656;28;20022;-78
2023/08/17 11:28:08;;;;;;;2.83;2.03;;;30.80;75.20;;;;;;4974239;28;20030;-77
2023/08/17 11:30:37;;;;;;;6.88;2.60;;;31.30;73.00;;;;;;4991765;28;20022;-75
2023/08/17 11:33:03;;;;;;;6.87;1.97;;;32.10;72.80;;;;;;4991057;28;20498;-75
2023/08/17 11:35:28;;;;;;;3.20;2.00;;;33.40;73.00;;;;;;4991502;28;20765;-78
2023/08/17 11:37:54;;;;;;;2.60;2.40;;;34.80;69.60;;;;;;4989890;28;20026;-76
2023/08/17 11:40:20;;;;;;;2.72;2.53;;;34.30;68.80;;;;;;4991208;28;20033;-76
2023/08/17 11:42:46;;;;;;;6.00;2.63;;;32.80;71.90;;;;;;4971018;28;20034;-78
2023/08/17 11:45:12;;;;;;;4.13;2.38;;;32.60;71.60;;;;;;4972950;28;20018;-74
2023/08/17 11:47:38;;;;;;;3.97;2.83;;;33.10;71.40;;;;;;4973010;28;20375;-75
2023/08/17 11:50:06;;;;;;;6.28;2.08;;;34.10;70.10;;;;;;4991282;28;20045;-75
2023/08/17 11:52:38;;;;;;;2.67;2.00;;;35.50;68.70;;;;;;4991132;28;20033;-75
2023/08/17 11:55:06;;;;;;;6.25;1.98;;;36.60;66.20;;;;;;4990788;28;20097;-75
2023/08/17 11:57:32;;;;;;;2.47;1.83;;;36.80;64.40;;;;;;4973566;28;20039;-75
2023/08/17 12:00:00;;;;;;;6.80;2.10;;;37.00;62.20;;;;;;4990681;28;20100;-76
2023/08/17 12:02:29;;;;;;;2.80;1.75;;;37.90;61.30;;;;;;4990714;28;20038;-76
2023/08/17 12:04:56;;;;;;;4.88;1.80;;;38.20;60.10;;;;;;4991122;28;20045;-76
2023/08/17 12:07:24;;;;;;;4.22;2.65;;;38.50;59.00;;;;;;4991345;28;20022;-75
2023/08/17 12:09:51;;;;;;;4.07;1.73;;;38.00;58.40;;;;;;4991266;28;20266;-75
2023/08/17 12:12:22;;;;;;;3.38;2.05;;;37.60;58.30;;;;;;4973283;28;20061;-75
2023/08/17 12:14:48;;;;;;;4.28;1.77;;;37.70;57.70;;;;;;4990621;28;20030;-75
2023/08/17 12:17:16;;;;;;;3.20;1.77;;;37.40;57.60;;;;;;4990612;28;20077;-76
2023/08/17 12:19:42;;;;;;;2.03;1.88;;;37.20;56.40;;;;;;4990526;28;20034;-75
2023/08/17 12:22:08;;;;;;;3.80;1.88;;;37.70;57.00;;;;;;4990512;28;20033;-76
2023/08/17 12:24:35;;;;;;;3.88;2.10;;;36.80;56.60;;;;;;4975249;28;20026;-76
2023/08/17 12:27:02;;;;;;;2.70;2.28;;;37.10;56.70;;;;;;4973753;28;20033;-75
2023/08/17 12:29:27;;;;;;;5.43;2.28;;;35.20;58.50;;;;;;4988492;28;20231;-75
2023/08/17 12:31:56;;;;;;;3.72;2.63;;;34.50;60.80;;;;;;4988578;28;20479;-76
2023/08/17 12:34:22;;;;;;;;;;;34.90;60.60;;;;;;4989260;28;20034;-75
2023/08/17 12:36:49;;;;;;;5.75;2.00;;;36.20;59.00;;;;;;4971411;28;19928;-76
2023/08/17 12:39:14;;;;;;;3.97;1.70;;;37.30;57.80;;;;;;4976527;28;20010;-75